Time;durP1;ratioP1;P1;durP2;ratioP2;P2;SDS_P1;SDS_P2;PMS_P1;PMS_P2;Temp;Humidity;BMP_temperature;BMP_pressure;BME280_temperature;BME280_humidity;BME280_pressure;Samples;Min_cycle;Max_cycle;Signal;HPM_P1;HPM_P2
2024/01/22 00:01:26;;;;;;;9.40;6.07;;;;;;;-145.63;51.64;38930.38;5031527;28;20414;-66
2024/01/22 00:03:52;;;;;;;9.98;6.30;;;;;;;-145.63;52.26;38918.66;5032357;28;20516;-66
2024/01/22 00:06:17;;;;;;;9.18;6.35;;;;;;;-145.63;52.65;38946.03;5032930;28;20034;-67
2024/01/22 00:08:43;;;;;;;8.60;5.78;;;;;;;-145.63;52.66;38971.44;5030297;28;20041;-66
2024/01/22 00:11:09;;;;;;;10.60;6.32;;;;;;;-145.63;52.48;38947.97;5031742;28;20037;-66
2024/01/22 00:13:34;;;;;;;7.75;5.95;;;;;;;-145.63;52.24;38926.47;5032756;28;20029;-66
2024/01/22 00:16:00;;;;;;;7.95;5.65;;;;;;;-145.63;51.75;38965.56;5032975;28;20033;-66
2024/01/22 00:18:25;;;;;;;6.90;5.35;;;;;;;-145.63;52.26;38938.19;5032605;28;20434;-67
2024/01/22 00:20:51;;;;;;;8.80;6.25;;;;;;;-145.63;52.40;38932.34;5032501;28;20033;-67
2024/01/22 00:23:17;;;;;;;8.00;5.82;;;;;;;-145.63;52.58;38967.53;5032673;28;20025;-66
2024/01/22 00:25:42;;;;;;;7.78;6.00;;;;;;;-145.63;52.35;38942.13;5032316;28;20041;-66
2024/01/22 00:28:09;;;;;;;9.48;6.40;;;;;;;-145.63;53.03;38901.03;5016752;28;20502;-66
2024/01/22 00:30:34;;;;;;;9.15;5.95;;;;;;;-145.63;53.29;38916.69;5025052;28;20037;-67
2024/01/22 00:33:00;;;;;;;10.32;6.50;;;;;;;-145.63;53.06;38934.28;5032794;28;20029;-67
2024/01/22 00:35:25;;;;;;;8.75;6.18;;;;;;;-145.63;51.50;38926.47;5032705;28;20049;-67
2024/01/22 00:37:51;;;;;;;8.77;5.97;;;;;;;-145.63;51.88;38947.97;5049723;28;20033;-67
2024/01/22 00:40:17;;;;;;;12.65;6.28;;;;;;;-145.63;52.67;38953.84;5035098;28;20112;-65
2024/01/22 00:42:43;;;;;;;10.05;6.35;;;;;;;-145.63;52.46;38916.69;5033308;28;20029;-67
2024/01/22 00:45:09;;;;;;;9.30;6.63;;;;;;;-145.63;53.00;38936.25;5031663;28;20044;-66
2024/01/22 00:47:36;;;;;;;7.75;5.82;;;;;;;-145.63;53.02;38936.25;5032960;28;20075;-66
2024/01/22 00:50:02;;;;;;;9.02;6.40;;;;;;;-145.63;51.81;38920.59;5032994;28;20025;-66
2024/01/22 00:52:29;;;;;;;9.45;6.32;;;;;;;-145.63;52.72;38922.56;5032655;28;20040;-66
2024/01/22 00:54:55;;;;;;;10.27;6.82;;;;;;;-145.63;52.37;38912.78;5033059;28;20034;-65
2024/01/22 00:57:21;;;;;;;7.60;5.95;;;;;;;-145.63;52.14;38924.50;5032843;28;20115;-65
2024/01/22 00:59:46;;;;;;;10.05;6.72;;;;;;;-145.63;52.24;38930.38;5032374;28;20033;-66
2024/01/22 01:02:12;;;;;;;10.35;7.30;;;;;;;-145.63;52.09;38912.78;5032419;28;20052;-66
2024/01/22 01:04:38;;;;;;;11.80;7.30;;;;;;;-145.63;53.40;38944.06;5032187;28;20036;-65
2024/01/22 01:07:03;;;;;;;11.18;7.85;;;;;;;-145.63;53.17;38914.72;5032052;28;20076;-66
2024/01/22 01:09:29;;;;;;;13.63;8.10;;;;;;;-145.63;53.60;38967.53;5021201;28;20352;-66
2024/01/22 01:11:55;;;;;;;12.38;8.25;;;;;;;-145.63;53.27;38922.56;5018617;28;20064;-66
2024/01/22 01:14:20;;;;;;;14.63;8.55;;;;;;;-145.63;53.48;38944.06;5032123;28;20033;-66
2024/01/22 01:16:46;;;;;;;10.68;7.95;;;;;;;-145.63;53.00;38940.16;5032190;28;20026;-66
2024/01/22 01:19:12;;;;;;;14.10;7.60;;;;;;;-145.63;52.45;38938.19;5031013;28;20037;-66
2024/01/22 01:21:38;;;;;;;11.55;7.78;;;;;;;-145.63;52.83;38926.47;5032195;28;20037;-68
2024/01/22 01:24:04;;;;;;;12.25;7.82;;;;;;;-145.63;52.69;38949.94;5033316;28;20462;-65
2024/01/22 01:26:30;;;;;;;14.82;8.48;;;;;;;-145.63;52.52;38957.75;5036205;28;20075;-65
2024/01/22 01:28:55;;;;;;;12.18;7.70;;;;;;;-145.63;52.25;38928.44;5036324;28;20029;-65
2024/01/22 01:31:22;;;;;;;12.23;8.20;;;;;;;-145.63;52.22;38942.13;5036391;28;20037;-66
2024/01/22 01:33:47;;;;;;;13.30;9.32;;;;;;;-145.63;52.42;38928.44;5035956;28;20037;-66
2024/01/22 01:36:13;;;;;;;12.93;8.52;;;;;;;-145.63;53.00;38953.84;5039966;28;20037;-67
2024/01/22 01:38:39;;;;;;;15.00;9.00;;;;;;;-145.63;52.83;38977.31;5051831;28;20045;-67
2024/01/22 01:41:05;;;;;;;17.08;9.00;;;;;;;-145.63;53.29;38930.38;5036134;28;20160;-67
2024/01/22 01:43:31;;;;;;;12.57;8.40;;;;;;;-145.63;53.04;38955.81;5034975;28;20079;-68
2024/01/22 01:45:56;;;;;;;14.10;8.95;;;;;;;-145.63;53.63;38969.50;5035219;28;20435;-68
2024/01/22 01:48:22;;;;;;;18.48;9.68;;;;;;;-145.63;53.63;38918.66;5034888;28;20030;-67
2024/01/22 01:50:48;;;;;;;13.98;9.27;;;;;;;-145.63;54.30;38901.03;5035053;28;20124;-66
2024/01/22 01:53:14;;;;;;;14.75;9.30;;;;;;;-145.63;54.63;38928.44;5034962;28;20057;-68
2024/01/22 01:55:41;;;;;;;19.95;9.88;;;;;;;-145.63;53.94;38946.03;5035151;28;20455;-67
2024/01/22 01:58:06;;;;;;;15.00;9.75;;;;;;;-145.63;54.65;38953.84;5035027;28;20059;-68
2024/01/22 02:00:33;;;;;;;15.65;9.75;;;;;;;-145.63;54.47;38932.34;5034660;28;20511;-68
2024/01/22 02:02:58;;;;;;;14.80;9.60;;;;;;;-145.63;54.27;38946.03;5035067;28;20026;-66
2024/01/22 02:05:24;;;;;;;14.55;9.35;;;;;;;-145.63;54.02;38951.88;5035184;28;20478;-68
2024/01/22 02:07:49;;;;;;;17.52;9.02;;;;;;;-145.63;54.76;38930.38;5034389;28;20029;-69
2024/01/22 02:10:15;;;;;;;16.70;9.63;;;;;;;-145.63;54.90;38961.66;5031572;28;20034;-68
2024/01/22 02:12:41;;;;;;;17.08;11.05;;;;;;;-145.63;54.81;38926.47;5034805;28;20025;-69
2024/01/22 02:15:08;;;;;;;16.13;10.65;;;;;;;-145.63;55.13;38957.75;5034772;28;20104;-66
2024/01/22 02:17:34;;;;;;;15.70;9.75;;;;;;;-145.63;55.41;38910.81;5034843;28;20025;-67
2024/01/22 02:19:59;;;;;;;18.30;10.57;;;;;;;-145.63;55.16;38949.94;5034759;28;20044;-66
2024/01/22 02:22:25;;;;;;;17.10;9.60;;;;;;;-145.63;54.97;38949.94;5034685;28;20052;-66
2024/01/22 02:24:51;;;;;;;15.48;9.48;;;;;;;-145.63;54.98;38963.63;5033546;28;20029;-67
2024/01/22 02:27:17;;;;;;;15.77;9.70;;;;;;;-145.63;54.76;38959.72;5034631;28;20030;-67
2024/01/22 02:29:43;;;;;;;13.63;9.75;;;;;;;-145.63;54.43;38949.94;5034472;28;20458;-66
2024/01/22 02:32:09;;;;;;;16.98;9.57;;;;;;;-145.63;54.40;38953.84;5035244;28;20030;-67
2024/01/22 02:34:34;;;;;;;14.15;9.90;;;;;;;-145.63;54.66;38957.75;5033880;28;20026;-66
2024/01/22 02:37:00;;;;;;;18.83;11.02;;;;;;;-145.63;54.57;38949.94;5045169;28;20033;-66
2024/01/22 02:39:26;;;;;;;14.80;9.20;;;;;;;-145.63;54.32;38975.34;5044840;28;20072;-67
2024/01/22 02:41:51;;;;;;;18.42;9.95;;;;;;;-145.63;54.42;38957.75;5034732;28;20378;-68
2024/01/22 02:44:17;;;;;;;16.38;9.93;;;;;;;-145.63;54.61;38940.16;5034391;28;20025;-68
2024/01/22 02:46:42;;;;;;;14.82;9.57;;;;;;;-145.63;54.28;38969.50;5034022;28;20025;-67
2024/01/22 02:49:11;;;;;;;17.13;9.57;;;;;;;-145.63;54.10;38951.88;5021029;28;20037;-66
2024/01/22 02:51:37;;;;;;;15.02;9.90;;;;;;;-145.63;54.22;38951.88;5034045;28;20087;-67
2024/01/22 02:54:06;;;;;;;13.68;9.75;;;;;;;-145.63;53.83;38953.84;5026459;28;20038;-70
2024/01/22 02:56:31;;;;;;;15.30;9.80;;;;;;;-145.63;53.95;38961.66;5015842;28;20041;-69
2024/01/22 02:58:57;;;;;;;16.15;9.23;;;;;;;-145.63;54.21;38949.94;5033467;28;20140;-68
2024/01/22 03:01:23;;;;;;;16.85;9.57;;;;;;;-145.63;54.49;38946.03;5016966;28;20522;-67
2024/01/22 03:03:48;;;;;;;13.95;9.30;;;;;;;-145.63;54.65;38920.59;5019051;28;20227;-67
2024/01/22 03:06:14;;;;;;;17.10;9.80;;;;;;;-145.63;54.42;38963.63;5020540;28;20511;-66
2024/01/22 03:08:40;;;;;;;18.20;9.70;;;;;;;-145.63;55.02;38969.50;5031007;28;20057;-67
2024/01/22 03:11:06;;;;;;;16.83;10.27;;;;;;;-145.63;55.15;38961.66;5031128;28;20026;-67
2024/01/22 03:13:32;;;;;;;13.00;9.05;;;;;;;-145.63;55.22;38977.31;5033116;28;20029;-66
2024/01/22 03:16:00;;;;;;;16.40;10.20;;;;;;;-145.63;55.53;38961.66;5029788;28;20040;-68
2024/01/22 03:18:27;;;;;;;16.65;10.15;;;;;;;-145.63;55.47;38920.59;5024276;28;20029;-68
2024/01/22 03:20:53;;;;;;;18.67;10.48;;;;;;;-145.63;55.30;38949.94;5026258;28;20470;-66
2024/01/22 03:23:19;;;;;;;16.17;11.02;;;;;;;-145.63;55.28;38983.19;5033478;28;20045;-67
2024/01/22 03:25:44;;;;;;;18.63;10.32;;;;;;;-145.63;55.15;38965.56;5028450;28;20036;-68
2024/01/22 03:28:11;;;;;;;16.15;9.30;;;;;;;-145.63;54.97;38951.88;5025387;28;20030;-67
2024/01/22 03:30:37;;;;;;;24.55;10.55;;;;;;;-145.63;55.23;38959.72;5025915;28;20068;-67
2024/01/22 03:33:02;;;;;;;18.15;10.18;;;;;;;-145.63;55.07;38946.03;5020247;28;20462;-68
2024/01/22 03:35:28;;;;;;;17.55;10.88;;;;;;;-145.63;55.21;38938.19;5030520;28;20072;-66
2024/01/22 03:37:54;;;;;;;17.35;10.27;;;;;;;-145.63;55.03;38951.88;5025425;28;20042;-67
2024/01/22 03:40:19;;;;;;;19.77;10.75;;;;;;;-145.63;54.66;38971.44;5023714;28;20049;-68
2024/01/22 03:42:45;;;;;;;18.10;10.70;;;;;;;-145.63;54.75;38957.75;5017520;28;20090;-66
2024/01/22 03:45:11;;;;;;;15.02;10.40;;;;;;;-145.63;54.56;38947.97;5022835;28;20568;-68
2024/01/22 03:47:37;;;;;;;15.43;9.95;;;;;;;-145.63;54.53;38953.84;5012631;28;20033;-67
2024/01/22 03:50:03;;;;;;;18.40;10.90;;;;;;;-145.63;55.11;38936.25;5019788;28;20048;-68
2024/01/22 03:52:30;;;;;;;17.73;10.80;;;;;;;-145.63;55.14;38959.72;5031894;28;20037;-67
2024/01/22 03:54:55;;;;;;;16.98;10.18;;;;;;;-145.63;55.29;38953.84;5028173;28;20034;-67
2024/01/22 03:57:21;;;;;;;15.82;10.23;;;;;;;-145.63;55.28;38963.63;5014247;28;20539;-66
2024/01/22 03:59:48;;;;;;;18.15;10.73;;;;;;;-145.63;54.92;38957.75;5029561;28;20046;-68
2024/01/22 04:02:14;;;;;;;15.32;9.80;;;;;;;-145.63;54.86;38961.66;5013514;28;20500;-66
2024/01/22 04:04:41;;;;;;;17.25;9.65;;;;;;;-145.63;54.59;38965.56;5024110;28;20037;-67
2024/01/22 04:07:07;;;;;;;14.75;9.43;;;;;;;-145.63;54.59;38991.00;5024582;28;20038;-66
2024/01/22 04:09:32;;;;;;;17.27;10.10;;;;;;;-145.63;54.35;39026.19;5025090;28;20033;-67
2024/01/22 04:11:58;;;;;;;16.02;10.07;;;;;;;-145.63;53.82;38985.13;5027646;28;20033;-67
2024/01/22 04:14:24;;;;;;;15.00;9.23;;;;;;;-145.63;54.00;38969.50;5032023;28;20029;-66
2024/01/22 04:16:50;;;;;;;15.68;10.13;;;;;;;-145.63;53.92;38971.44;5038943;28;20037;-67
2024/01/22 04:19:15;;;;;;;15.65;9.25;;;;;;;-145.63;54.03;38959.72;5043044;28;20088;-66
2024/01/22 04:21:45;;;;;;;15.80;9.13;;;;;;;-145.63;54.03;38963.63;5027929;28;20030;-67
2024/01/22 04:24:11;;;;;;;19.15;9.90;;;;;;;-145.63;53.65;38992.97;5013249;28;20032;-66
2024/01/22 04:26:36;;;;;;;14.45;9.43;;;;;;;-145.63;54.06;38996.88;5030577;28;20025;-67
2024/01/22 04:29:02;;;;;;;16.08;9.40;;;;;;;-145.63;54.20;38959.72;5018171;28;20057;-66
2024/01/22 04:31:28;;;;;;;15.48;9.13;;;;;;;-145.63;53.83;38969.50;5021024;28;20034;-66
2024/01/22 04:33:56;;;;;;;15.00;8.70;;;;;;;-145.63;53.59;38985.13;5032228;28;20123;-67
2024/01/22 04:36:22;;;;;;;14.65;9.55;;;;;;;-145.63;53.97;38955.81;5031621;28;20430;-68
2024/01/22 04:38:48;;;;;;;14.15;9.05;;;;;;;-145.63;53.60;38994.91;5032925;28;20064;-67
2024/01/22 04:41:14;;;;;;;16.27;9.63;;;;;;;-145.63;53.69;38998.81;5030304;28;20025;-67
2024/01/22 04:43:39;;;;;;;17.40;9.73;;;;;;;-145.63;53.85;38951.88;5021279;28;20030;-66
2024/01/22 04:46:06;;;;;;;18.10;9.50;;;;;;;-145.63;54.27;38987.09;5014696;28;20030;-67
2024/01/22 04:48:32;;;;;;;13.80;9.07;;;;;;;-145.63;54.33;38977.31;5014331;28;20406;-69
2024/01/22 04:50:57;;;;;;;20.50;9.80;;;;;;;-145.63;53.69;38994.91;5021647;28;20049;-68
2024/01/22 04:53:23;;;;;;;13.85;9.65;;;;;;;-145.63;53.61;38973.41;5029487;28;20037;-67
2024/01/22 04:55:49;;;;;;;16.02;9.05;;;;;;;-145.63;53.90;39024.25;5031712;28;20037;-68
2024/01/22 04:58:15;;;;;;;15.35;9.07;;;;;;;-145.63;53.80;38981.22;5031718;28;20029;-66
2024/01/22 05:00:40;;;;;;;16.20;10.10;;;;;;;-145.63;54.18;38953.84;5032385;28;20425;-67
2024/01/22 05:03:06;;;;;;;17.48;9.50;;;;;;;-145.63;54.03;39016.44;5032474;28;20033;-67
2024/01/22 05:05:33;;;;;;;15.27;9.02;;;;;;;-145.63;53.78;38996.88;5033315;28;20109;-66
2024/01/22 05:08:00;;;;;;;20.35;10.20;;;;;;;-145.63;53.91;38975.34;5032058;28;20048;-68
2024/01/22 05:10:26;;;;;;;17.80;10.48;;;;;;;-145.63;54.11;39002.72;5021525;28;20108;-67
2024/01/22 05:12:52;;;;;;;17.73;9.27;;;;;;;-145.63;53.90;38996.88;5035431;28;20498;-68
2024/01/22 05:15:17;;;;;;;16.73;9.55;;;;;;;-145.63;54.11;38707.44;5040119;28;20131;-66
2024/01/22 05:17:43;;;;;;;15.48;9.77;;;;;;;-145.63;54.06;38977.31;5037351;28;20486;-69
2024/01/22 05:20:09;;;;;;;16.08;9.10;;;;;;;-145.63;53.78;39004.69;5035874;28;20030;-68
2024/01/22 05:22:35;;;;;;;20.48;9.63;;;;;;;-145.63;54.01;39012.50;5032634;28;20034;-68
2024/01/22 05:25:01;;;;;;;14.60;9.27;;;;;;;-145.63;53.53;39010.56;5028849;28;20068;-69
2024/01/22 05:27:29;;;;;;;17.38;9.70;;;;;;;-145.63;54.13;39051.63;5031508;28;20056;-68
2024/01/22 05:29:55;;;;;;;17.23;9.55;;;;;;;-145.63;54.19;39028.16;5031560;28;20112;-67
2024/01/22 05:32:20;;;;;;;15.23;10.02;;;;;;;-145.63;53.73;39000.78;5031637;28;20432;-70
2024/01/22 05:34:46;;;;;;;15.30;9.27;;;;;;;-145.63;53.65;39035.97;5030900;28;20115;-67
2024/01/22 05:37:12;;;;;;;19.58;10.10;;;;;;;-145.63;53.73;38992.97;5031195;28;20045;-66
2024/01/22 05:39:38;;;;;;;14.98;9.88;;;;;;;-145.63;53.48;39012.50;5031406;28;20124;-66
2024/01/22 05:42:12;;;;;;;20.15;11.40;;;;;;;-145.63;53.57;39006.66;5031608;28;20050;-68
2024/01/22 05:44:38;;;;;;;17.88;9.75;;;;;;;-145.63;54.17;38991.00;5031053;28;20036;-63
2024/01/22 05:47:04;;;;;;;22.13;11.07;;;;;;;-145.63;53.80;38983.19;5032038;28;20375;-63
2024/01/22 05:49:29;;;;;;;18.55;9.85;;;;;;;-145.63;53.67;39004.69;5031252;28;20035;-68
2024/01/22 05:51:55;;;;;;;21.75;9.90;;;;;;;-145.63;53.75;39041.84;5031306;28;20045;-65
2024/01/22 05:54:21;;;;;;;14.60;9.40;;;;;;;-145.63;53.63;39010.56;5031644;28;20029;-65
2024/01/22 05:56:46;;;;;;;20.65;9.95;;;;;;;-145.63;53.61;38816.97;5031406;28;20030;-66
2024/01/22 05:59:12;;;;;;;20.52;9.55;;;;;;;-145.63;53.50;39004.69;5031957;28;20029;-66
2024/01/22 06:01:37;;;;;;;20.58;10.38;;;;;;;-145.63;53.58;39008.59;5031172;28;20041;-66
2024/01/22 06:04:04;;;;;;;23.02;10.48;;;;;;;-145.63;53.04;38989.03;5031826;28;20630;-66
2024/01/22 06:06:30;;;;;;;17.67;9.65;;;;;;;-145.63;52.42;38996.88;5032009;28;20029;-66
2024/01/22 06:08:56;;;;;;;17.90;9.38;;;;;;;-145.63;52.15;38967.53;5031799;28;20485;-65
2024/01/22 06:11:21;;;;;;;19.23;9.68;;;;;;;-145.63;52.14;38983.19;5018323;28;20080;-66
2024/01/22 06:13:48;;;;;;;14.90;9.07;;;;;;;-145.63;52.03;38989.03;5026810;28;20096;-66
2024/01/22 06:16:14;;;;;;;15.05;8.77;;;;;;;-145.63;51.55;38957.75;5037004;28;20458;-66
2024/01/22 06:18:42;;;;;;;21.17;10.05;;;;;;;-145.63;51.65;38961.66;5052659;28;20116;-66
2024/01/22 06:21:08;;;;;;;19.35;9.77;;;;;;;-145.63;51.81;38975.34;5035322;28;20701;-66
2024/01/22 06:23:35;;;;;;;15.45;9.15;;;;;;;-145.63;51.43;38949.94;5034709;28;20103;-65
2024/01/22 06:26:01;;;;;;;15.60;9.35;;;;;;;-145.63;51.47;38991.00;5033902;28;20029;-66
2024/01/22 06:28:30;;;;;;;16.15;9.32;;;;;;;-145.63;51.25;38953.84;5035046;28;20030;-65
2024/01/22 06:30:55;;;;;;;22.83;10.38;;;;;;;-145.63;51.31;38989.03;5034732;28;20485;-65
2024/01/22 06:33:21;;;;;;;19.05;9.75;;;;;;;-145.63;51.08;38998.81;5034378;28;20038;-66
2024/01/22 06:35:48;;;;;;;16.08;9.98;;;;;;;-145.63;51.04;38985.13;5014871;28;20058;-66
2024/01/22 06:38:17;;;;;;;20.50;10.05;;;;;;;-145.63;50.83;39010.56;5028492;28;20390;-66
2024/01/22 06:40:46;;;;;;;16.58;10.15;;;;;;;-145.63;51.02;38957.75;5034806;28;20030;-64
2024/01/22 06:43:12;;;;;;;18.25;9.68;;;;;;;-145.63;50.16;38996.88;5034621;28;20458;-65
2024/01/22 06:45:38;;;;;;;14.35;8.90;;;;;;;-145.63;50.30;38994.91;5026877;28;20021;-65
2024/01/22 06:48:04;;;;;;;15.63;8.90;;;;;;;-145.63;50.38;38992.97;5034734;28;20547;-65
2024/01/22 06:50:37;;;;;;;16.92;9.73;;;;;;;-145.63;49.94;39004.69;5033917;28;20029;-67
2024/01/22 06:53:03;;;;;;;16.73;9.60;;;;;;;-145.63;49.60;38971.44;5034079;28;20025;-65
2024/01/22 06:55:29;;;;;;;16.92;9.88;;;;;;;-145.63;49.85;38971.44;5034505;28;20030;-66
2024/01/22 06:57:55;;;;;;;15.88;9.50;;;;;;;-145.63;49.44;38989.03;5034383;28;20542;-65
2024/01/22 07:00:21;;;;;;;18.10;8.95;;;;;;;-145.63;48.88;39008.59;5034654;28;20032;-65
2024/01/22 07:02:48;;;;;;;15.90;8.80;;;;;;;-145.63;49.04;38975.34;5034629;28;20067;-66
2024/01/22 07:05:15;;;;;;;17.75;10.48;;;;;;;-145.63;49.20;38989.03;5035366;28;20163;-66
2024/01/22 07:07:41;;;;;;;17.65;10.00;;;;;;;-145.63;50.03;38987.09;5033864;28;20037;-66
2024/01/22 07:10:08;;;;;;;17.73;8.90;;;;;;;-145.63;49.26;38973.41;5028949;28;20487;-65
2024/01/22 07:12:40;;;;;;;18.60;9.88;;;;;;;-145.63;48.86;38983.19;5015038;28;20057;-67
2024/01/22 07:15:08;;;;;;;14.80;9.68;;;;;;;-145.63;48.79;38949.94;5034582;28;20165;-66
2024/01/22 07:17:34;;;;;;;19.25;10.45;;;;;;;-145.63;48.98;38989.03;5018401;28;20044;-65
2024/01/22 07:19:59;;;;;;;16.42;10.00;;;;;;;-145.63;48.43;38969.50;5026249;28;20038;-66
2024/01/22 07:22:25;;;;;;;18.85;9.38;;;;;;;-145.63;48.44;38996.88;5019827;28;20037;-66
2024/01/22 07:24:50;;;;;;;18.08;8.90;;;;;;;-145.63;48.28;38977.31;5017079;28;20045;-65
2024/01/22 07:27:18;;;;;;;16.33;9.30;;;;;;;-145.63;48.14;38906.91;5027434;28;20171;-65
2024/01/22 07:29:43;;;;;;;16.13;9.07;;;;;;;-145.63;47.63;38971.44;5015062;28;20037;-65
2024/01/22 07:32:09;;;;;;;15.77;9.38;;;;;;;-145.63;47.64;39006.66;5027342;28;20034;-65
2024/01/22 07:34:35;;;;;;;16.52;8.88;;;;;;;-145.63;47.31;39008.59;5024660;28;20565;-64
2024/01/22 07:37:00;;;;;;;15.50;8.57;;;;;;;-145.63;47.53;39014.47;5019335;28;20133;-63
2024/01/22 07:39:26;;;;;;;15.52;8.77;;;;;;;-145.63;47.34;39000.78;5034023;28;20067;-65
2024/01/22 07:41:52;;;;;;;17.35;9.82;;;;;;;-145.63;47.09;38987.09;5024329;28;20041;-64
2024/01/22 07:44:17;;;;;;;14.02;8.10;;;;;;;-145.63;47.07;38977.31;5029376;28;20510;-65
2024/01/22 07:46:44;;;;;;;13.23;8.85;;;;;;;-145.63;47.28;38985.13;5030792;28;20056;-65
2024/01/22 07:49:10;;;;;;;14.15;8.95;;;;;;;-145.63;47.14;38959.72;5029466;28;20049;-67
2024/01/22 07:51:35;;;;;;;15.00;8.52;;;;;;;-145.63;47.29;38973.41;5025426;28;20029;-65
2024/01/22 07:54:01;;;;;;;15.25;8.63;;;;;;;-145.63;47.51;38953.84;5032047;28;20523;-66
2024/01/22 07:56:28;;;;;;;14.27;9.02;;;;;;;-145.63;47.51;38981.22;5032766;28;20040;-68
2024/01/22 07:58:53;;;;;;;19.75;8.68;;;;;;;-145.63;47.33;38959.72;5029888;28;20021;-65
2024/01/22 08:01:19;;;;;;;19.92;9.05;;;;;;;-145.63;47.13;38949.94;5025102;28;20455;-65
2024/01/22 08:03:45;;;;;;;14.55;8.48;;;;;;;-145.63;46.90;38998.81;5024500;28;20041;-66
2024/01/22 08:06:11;;;;;;;15.63;9.05;;;;;;;-145.63;47.47;38957.75;5013290;28;20034;-66
2024/01/22 08:08:37;;;;;;;17.13;9.45;;;;;;;-145.63;47.21;38983.19;5022689;28;20527;-66
2024/01/22 08:11:02;;;;;;;16.67;8.85;;;;;;;-145.63;47.09;38987.09;5019568;28;20711;-66
2024/01/22 08:13:28;;;;;;;15.00;8.50;;;;;;;-145.63;46.48;38987.09;5021296;28;20116;-66
2024/01/22 08:15:54;;;;;;;22.95;9.13;;;;;;;-145.63;46.83;38947.97;5030540;28;20095;-66
2024/01/22 08:18:19;;;;;;;18.48;8.80;;;;;;;-145.63;46.71;39000.78;5035586;28;20563;-66
2024/01/22 08:20:45;;;;;;;20.67;8.70;;;;;;;-145.63;46.75;38963.63;5031062;28;20037;-68
2024/01/22 08:23:11;;;;;;;13.70;9.05;;;;;;;-145.63;46.96;38989.03;5023660;28;20040;-65
2024/01/22 08:25:36;;;;;;;14.80;8.38;;;;;;;-145.63;46.46;38996.88;5023846;28;20448;-66
2024/01/22 08:28:02;;;;;;;17.48;8.85;;;;;;;-145.63;47.09;38994.91;5016526;28;21149;-65
2024/01/22 08:30:29;;;;;;;16.42;8.65;;;;;;;-145.63;46.17;38987.09;5032091;28;20071;-64
2024/01/22 08:32:55;;;;;;;13.65;8.25;;;;;;;-145.63;46.51;38996.88;5012845;28;20046;-65
2024/01/22 08:35:22;;;;;;;20.63;8.63;;;;;;;-145.63;46.94;38991.00;5026919;28;20497;-64
2024/01/22 08:37:54;;;;;;;15.45;8.18;;;;;;;-145.63;45.79;38983.19;5021719;28;20125;-65
2024/01/22 08:40:22;;;;;;;14.85;8.75;;;;;;;-145.63;45.92;39004.69;5024336;28;20033;-65
2024/01/22 08:42:53;;;;;;;16.48;8.32;;;;;;;-145.63;45.70;39059.44;5013638;28;20030;-65
2024/01/22 08:45:21;;;;;;;12.05;7.20;;;;;;;-145.63;46.31;38975.34;5031204;28;20064;-64
2024/01/22 08:47:48;;;;;;;15.98;8.70;;;;;;;-145.63;46.83;39030.13;5028122;28;20041;-65
2024/01/22 08:50:17;;;;;;;14.32;8.50;;;;;;;-145.63;46.63;38971.44;5028375;28;20624;-65
2024/01/22 08:52:44;;;;;;;18.13;8.63;;;;;;;-145.63;46.56;39016.44;5022207;28;20132;-66
2024/01/22 08:55:09;;;;;;;15.07;8.75;;;;;;;-145.63;46.53;39020.34;5027332;28;20103;-66
2024/01/22 08:57:36;;;;;;;15.98;8.30;;;;;;;-145.63;46.53;38996.88;5012502;28;20029;-66
2024/01/22 09:00:06;;;;;;;15.95;8.27;;;;;;;-145.63;46.31;39002.72;5025643;28;20033;-65
2024/01/22 09:02:32;;;;;;;15.13;8.18;;;;;;;-145.63;46.64;38985.13;5029810;28;20032;-66
2024/01/22 09:04:57;;;;;;;19.05;8.70;;;;;;;-145.63;46.66;38987.09;5030247;28;20029;-67
2024/01/22 09:07:23;;;;;;;15.68;8.70;;;;;;;-145.63;46.68;39002.72;5025156;28;20534;-66
2024/01/22 09:09:50;;;;;;;16.38;8.20;;;;;;;-145.63;46.71;38973.41;5021344;28;20025;-65
2024/01/22 09:12:18;;;;;;;13.73;7.80;;;;;;;-145.63;46.67;38965.56;5024005;28;20029;-65
2024/01/22 09:14:44;;;;;;;12.32;7.90;;;;;;;-145.63;46.63;39028.16;5017583;28;20080;-66
2024/01/22 09:17:10;;;;;;;13.75;7.43;;;;;;;-145.63;46.77;38996.88;5025722;28;20029;-66
2024/01/22 09:19:35;;;;;;;17.83;7.93;;;;;;;-145.63;46.73;38949.94;5024189;28;20030;-65
2024/01/22 09:22:01;;;;;;;13.00;7.75;;;;;;;-145.63;46.39;39006.66;5026145;28;20052;-66
2024/01/22 09:24:27;;;;;;;15.38;7.85;;;;;;;-145.63;46.44;39010.56;5012506;28;20411;-65
2024/01/22 09:26:52;;;;;;;12.25;7.40;;;;;;;-145.63;46.14;38963.63;5030681;28;20053;-64
2024/01/22 09:29:18;;;;;;;13.68;8.07;;;;;;;-145.63;46.61;38940.16;5032355;28;20431;-65
2024/01/22 09:31:43;;;;;;;13.63;7.80;;;;;;;-145.63;46.49;39020.34;5022151;28;20037;-64
2024/01/22 09:34:10;;;;;;;12.95;7.90;;;;;;;-145.63;46.06;38991.00;5016192;28;20034;-66
2024/01/22 09:36:36;;;;;;;11.80;7.25;;;;;;;-145.63;46.10;38969.50;5032000;28;20069;-64
2024/01/22 09:39:01;;;;;;;10.45;6.75;;;;;;;-145.63;45.66;38973.41;5011424;28;20128;-65
2024/01/22 09:41:27;;;;;;;11.77;7.40;;;;;;;-145.63;46.42;38562.75;5027564;28;20029;-65
2024/01/22 09:43:54;;;;;;;12.23;7.10;;;;;;;-145.63;46.12;38992.97;5031118;28;20021;-65
2024/01/22 09:46:21;;;;;;;10.30;7.20;;;;;;;-145.63;46.61;38989.03;5032235;28;20037;-66
2024/01/22 09:48:50;;;;;;;12.40;7.03;;;;;;;-145.63;46.16;39010.56;5037090;28;20079;-65
2024/01/22 09:51:17;;;;;;;13.60;7.72;;;;;;;-145.63;45.96;39028.16;5035725;28;20043;-67
2024/01/22 09:53:47;;;;;;;14.18;6.95;;;;;;;-145.63;45.21;39026.19;5035445;28;20033;-65
2024/01/22 09:56:20;;;;;;;10.63;7.13;;;;;;;-145.63;45.53;39004.69;5032416;28;20030;-66
2024/01/22 09:58:47;;;;;;;12.50;6.55;;;;;;;-145.63;46.13;39037.94;5027627;28;20034;-65
2024/01/22 10:01:14;;;;;;;8.75;6.10;;;;;;;-145.63;45.87;39051.63;5026841;28;20377;-65
2024/01/22 10:03:40;;;;;;;10.15;6.53;;;;;;;-145.63;45.83;39018.38;5032082;28;20033;-65
2024/01/22 10:06:06;;;;;;;12.95;6.93;;;;;;;-145.63;45.54;39035.97;5029666;28;20453;-65
2024/01/22 10:08:32;;;;;;;11.73;6.40;;;;;;;-145.63;46.26;39053.59;5028924;28;20021;-64
2024/01/22 10:10:57;;;;;;;13.52;6.60;;;;;;;-145.63;45.73;39118.13;5025047;28;20344;-65
2024/01/22 10:13:23;;;;;;;13.60;7.35;;;;;;;-145.63;46.00;39022.28;5026157;28;20108;-65
2024/01/22 10:15:49;;;;;;;10.10;6.72;;;;;;;-145.63;45.48;39039.88;5023723;28;20063;-64
2024/01/22 10:18:17;;;;;;;10.85;6.22;;;;;;;-145.63;45.39;39028.16;5030088;28;20107;-64
2024/01/22 10:20:45;;;;;;;11.40;6.55;;;;;;;-145.63;45.81;39020.34;5029062;28;20030;-64
2024/01/22 10:23:12;;;;;;;12.23;6.47;;;;;;;-145.63;45.75;39114.22;5025168;28;20028;-64
2024/01/22 10:25:38;;;;;;;10.68;5.90;;;;;;;-145.63;44.77;39039.88;5027340;28;20026;-64
2024/01/22 10:28:11;;;;;;;11.02;6.20;;;;;;;-145.63;45.09;39035.97;5024681;28;20029;-64
2024/01/22 10:30:38;;;;;;;12.07;6.38;;;;;;;-145.63;45.43;39032.06;5025003;28;20037;-65
2024/01/22 10:33:15;;;;;;;8.07;5.72;;;;;;;-145.63;45.74;38891.28;5026654;28;20481;-65
2024/01/22 10:35:43;;;;;;;10.27;6.45;;;;;;;-145.63;46.18;39024.25;5025790;28;20056;-64
2024/01/22 10:38:13;;;;;;;10.35;5.78;;;;;;;-145.63;46.49;39051.63;5025585;28;20029;-65
2024/01/22 10:40:40;;;;;;;10.10;6.43;;;;;;;-145.63;45.38;39053.59;5029679;28;20036;-63
2024/01/22 10:43:24;;;;;;;8.68;6.03;;;;;;;-145.63;46.03;39063.34;5027486;28;20057;-65
2024/01/22 10:45:50;;;;;;;10.27;6.60;;;;;;;-145.63;46.57;39063.34;5022058;28;20041;-66
2024/01/22 10:48:18;;;;;;;14.07;6.88;;;;;;;-145.63;45.81;39067.28;5028505;28;20021;-65
2024/01/22 10:50:44;;;;;;;11.02;6.68;;;;;;;-145.63;46.20;39067.28;5021717;28;20646;-65
2024/01/22 10:53:13;;;;;;;10.95;6.32;;;;;;;-145.63;45.55;39055.53;5030237;28;20033;-67
2024/01/22 10:55:39;;;;;;;9.98;6.70;;;;;;;-145.63;45.62;38967.53;5031319;28;20216;-66
2024/01/22 10:58:54;;;;;;;12.10;6.82;;;;;;;-145.63;46.23;38887.34;5026095;28;20034;-65
2024/01/22 11:01:24;;;;;;;11.05;6.93;;;;;;;-145.63;45.91;39055.53;5039971;28;20045;-65
2024/01/22 11:03:52;;;;;;;12.43;6.68;;;;;;;-145.63;46.04;39094.66;5034148;28;20348;-65
2024/01/22 11:06:24;;;;;;;11.63;6.22;;;;;;;-145.63;46.17;39073.13;5032972;28;20438;-66